createdAt,value
2023-01-28T00:00:11.267Z,96598.75
2023-01-28T00:02:39.525Z,96598.00
2023-01-28T00:05:08.401Z,96595.50
2023-01-28T00:07:36.291Z,96605.47
2023-01-28T00:10:04.249Z,96601.25
2023-01-28T00:12:33.591Z,96596.34
2023-01-28T00:15:02.634Z,96595.56
2023-01-28T00:17:30.544Z,96595.59
2023-01-28T00:20:00.667Z,96601.41
2023-01-28T00:22:28.671Z,96593.97
2023-01-28T00:24:58.304Z,96593.06
2023-01-28T00:27:28.566Z,96588.00
2023-01-28T00:29:57.837Z,96592.22
2023-01-28T00:32:25.956Z,96589.22
2023-01-28T00:34:53.910Z,96593.44
2023-01-28T00:37:21.841Z,96591.72
2023-01-28T00:39:50.843Z,96585.81
2023-01-28T00:42:18.730Z,96582.34
2023-01-28T00:44:46.649Z,96584.75
2023-01-28T00:47:18.798Z,96581.50
2023-01-28T00:49:46.754Z,96583.09
2023-01-28T00:52:14.672Z,96581.41
2023-01-28T00:54:42.557Z,96584.91
2023-01-28T00:57:10.577Z,96582.63
2023-01-28T00:59:38.578Z,96591.88
2023-01-28T01:02:13.206Z,96594.38
2023-01-28T01:04:54.845Z,96586.84
2023-01-28T01:07:35.120Z,96596.00
2023-01-28T01:10:03.269Z,96592.66
2023-01-28T01:12:31.195Z,96593.47
2023-01-28T01:14:59.254Z,96595.94
2023-01-28T01:17:27.183Z,96596.78
2023-01-28T01:20:03.819Z,96596.75
2023-01-28T01:22:34.578Z,96599.94
2023-01-28T01:25:04.868Z,96601.78
2023-01-28T01:27:33.141Z,96609.34
2023-01-28T01:30:01.052Z,96603.59
2023-01-28T01:32:30.986Z,96609.94
2023-01-28T01:35:00.238Z,96603.56
2023-01-28T01:37:28.308Z,96603.66
2023-01-28T01:39:59.539Z,96609.53
2023-01-28T01:42:27.457Z,96600.38
2023-01-28T01:45:00.808Z,96610.41
2023-01-28T01:47:33.281Z,96608.66
2023-01-28T01:50:07.676Z,96597.84
2023-01-28T01:52:36.854Z,96599.50
2023-01-28T01:55:08.745Z,96599.09
2023-01-28T01:57:37.829Z,96605.94
2023-01-28T02:00:08.278Z,96601.72
2023-01-28T02:02:39.639Z,96601.06
2023-01-28T02:05:10.271Z,96597.78
2023-01-28T02:07:38.651Z,96603.63
2023-01-28T02:10:08.173Z,96601.19
2023-01-28T02:12:38.235Z,96604.47
2023-01-28T02:15:10.134Z,96614.28
2023-01-28T02:17:38.396Z,96614.47
2023-01-28T02:20:11.958Z,96610.28
2023-01-28T02:22:52.525Z,96615.34
2023-01-28T02:25:43.471Z,96607.84
2023-01-28T02:28:19.870Z,96605.72
2023-01-28T02:30:53.491Z,96605.16
2023-01-28T02:33:29.061Z,96611.94
2023-01-28T02:35:57.389Z,96616.94
2023-01-28T02:38:30.057Z,96615.31
2023-01-28T02:41:06.418Z,96622.00
2023-01-28T02:43:37.290Z,96615.41
2023-01-28T02:46:34.754Z,96621.91
2023-01-28T02:49:04.970Z,96616.97
2023-01-28T02:51:54.971Z,96626.75
2023-01-28T02:54:29.466Z,96628.47
2023-01-28T02:57:05.145Z,96621.94
2023-01-28T02:59:37.608Z,96616.19
2023-01-28T03:02:11.958Z,96618.53
2023-01-28T03:04:44.287Z,96626.06
2023-01-28T03:07:13.830Z,96621.84
2023-01-28T03:09:43.420Z,96617.59
2023-01-28T03:12:32.249Z,96608.16
2023-01-28T03:15:22.312Z,96603.06
2023-01-28T03:18:11.585Z,96608.06
2023-01-28T03:21:00.943Z,96618.22
2023-01-28T03:23:51.805Z,96609.94
2023-01-28T03:26:40.072Z,96616.44
2023-01-28T03:29:27.744Z,96617.31
2023-01-28T03:32:15.061Z,96625.69
2023-01-28T03:35:01.505Z,96634.16
2023-01-28T03:37:30.011Z,96629.06
2023-01-28T03:39:58.665Z,96628.31
2023-01-28T03:42:26.562Z,96624.84
2023-01-28T03:44:54.821Z,96618.94
2023-01-28T03:47:25.528Z,96617.22
2023-01-28T03:49:54.642Z,96620.53
2023-01-28T03:52:24.460Z,96625.56
2023-01-28T03:54:53.050Z,96624.72
2023-01-28T03:57:23.525Z,96628.97
2023-01-28T03:59:52.707Z,96629.09
2023-01-28T04:02:21.889Z,96627.59
2023-01-28T04:04:51.589Z,96638.50
2023-01-28T04:07:19.564Z,96631.69
2023-01-28T04:09:47.494Z,96643.31
2023-01-28T04:12:15.553Z,96648.34
2023-01-28T04:14:44.344Z,96652.56
2023-01-28T04:17:13.784Z,96649.16
2023-01-28T04:19:43.036Z,96656.53
2023-01-28T04:22:13.775Z,96658.75
2023-01-28T04:24:41.662Z,96653.03
2023-01-28T04:27:09.667Z,96651.34
2023-01-28T04:29:37.589Z,96646.88
2023-01-28T04:32:05.994Z,96650.28
2023-01-28T04:34:33.864Z,96648.66
2023-01-28T04:37:01.785Z,96654.59
2023-01-28T04:39:32.727Z,96655.22
2023-01-28T04:42:00.634Z,96657.66
2023-01-28T04:44:28.556Z,96658.50
2023-01-28T04:46:56.489Z,96665.28
2023-01-28T04:49:24.508Z,96657.06
2023-01-28T04:51:52.385Z,96656.28
2023-01-28T04:54:20.291Z,96664.03
2023-01-28T04:56:49.543Z,96673.03
2023-01-28T04:59:17.430Z,96672.31
2023-01-28T05:01:46.564Z,96675.53
2023-01-28T05:04:14.550Z,96668.78
2023-01-28T05:06:42.431Z,96673.81
2023-01-28T05:09:10.604Z,96680.59
2023-01-28T05:11:39.372Z,96682.78
2023-01-28T05:14:08.961Z,96692.13
2023-01-28T05:16:39.714Z,96688.00
2023-01-28T05:19:07.581Z,96685.53
2023-01-28T05:21:35.609Z,96687.97
2023-01-28T05:24:03.703Z,96687.94
2023-01-28T05:26:31.869Z,96691.25
2023-01-28T05:28:59.847Z,96692.97
2023-01-28T05:31:29.130Z,96695.56
2023-01-28T05:33:57.006Z,96698.00
2023-01-28T05:36:24.926Z,96697.88
2023-01-28T05:38:52.867Z,96693.75
2023-01-28T05:41:20.768Z,96697.81
2023-01-28T05:43:48.681Z,96692.09
2023-01-28T05:46:16.601Z,96688.03
2023-01-28T05:48:48.543Z,96697.97
2023-01-28T05:51:16.417Z,96698.78
2023-01-28T05:53:44.322Z,96699.72
2023-01-28T05:56:12.329Z,96703.84
2023-01-28T05:58:42.701Z,96703.09
2023-01-28T06:01:10.603Z,96698.16
2023-01-28T06:03:39.935Z,96703.09
2023-01-28T06:06:09.287Z,96708.88
2023-01-28T06:08:37.500Z,96706.44
2023-01-28T06:11:05.705Z,96710.53
2023-01-28T06:13:35.838Z,96715.53
2023-01-28T06:16:03.843Z,96713.84
2023-01-28T06:18:31.941Z,96716.31
2023-01-28T06:21:02.123Z,96720.41
2023-01-28T06:23:31.415Z,96719.50
2023-01-28T06:25:59.346Z,96722.75
2023-01-28T06:28:27.272Z,96720.34
2023-01-28T06:30:57.648Z,96726.22
2023-01-28T06:33:25.730Z,96723.81
2023-01-28T06:35:53.645Z,96718.81
2023-01-28T06:38:23.439Z,96727.09
2023-01-28T06:40:58.122Z,96719.63
2023-01-28T06:43:27.893Z,96726.31
2023-01-28T06:45:55.949Z,96729.75
2023-01-28T06:48:24.053Z,96726.41
2023-01-28T06:50:52.396Z,96728.81
2023-01-28T06:53:22.637Z,96732.03
2023-01-28T06:55:50.706Z,96732.13
2023-01-28T06:58:21.193Z,96736.38
2023-01-28T07:00:49.069Z,96740.63
2023-01-28T07:03:18.639Z,96745.41
2023-01-28T07:05:46.514Z,96744.56
2023-01-28T07:08:14.445Z,96738.81
2023-01-28T07:10:42.391Z,96740.38
2023-01-28T07:13:12.545Z,96741.16
2023-01-28T07:15:41.807Z,96740.28
2023-01-28T07:18:09.708Z,96738.56
2023-01-28T07:20:37.768Z,96736.91
2023-01-28T07:23:05.768Z,96743.56
2023-01-28T07:25:33.670Z,96736.06
2023-01-28T07:28:01.692Z,96747.84
2023-01-28T07:30:29.692Z,96742.03
2023-01-28T07:33:00.214Z,96744.41
2023-01-28T07:35:28.620Z,96746.84
2023-01-28T07:37:57.750Z,96753.59
2023-01-28T07:40:25.995Z,96745.94
2023-01-28T07:42:55.449Z,96752.84
2023-01-28T07:45:25.964Z,96752.75
2023-01-28T07:47:59.564Z,96754.53
2023-01-28T07:50:29.145Z,96751.88
2023-01-28T07:52:57.335Z,96751.06
2023-01-28T07:55:25.816Z,96749.28
2023-01-28T07:57:57.168Z,96744.94
2023-01-28T08:00:26.148Z,96757.44
2023-01-28T08:02:57.425Z,96759.09
2023-01-28T08:05:28.001Z,96756.59
2023-01-28T08:07:55.961Z,96769.19
2023-01-28T08:10:23.847Z,96770.00
2023-01-28T08:12:55.676Z,96767.44
2023-01-28T08:15:23.854Z,96768.28
2023-01-28T08:17:51.901Z,96768.19
2023-01-28T08:20:20.007Z,96773.06
2023-01-28T08:22:56.313Z,96777.09
2023-01-28T08:25:25.982Z,96769.56
2023-01-28T08:27:53.894Z,96771.16
2023-01-28T08:30:21.978Z,96773.47
2023-01-28T08:32:49.874Z,96781.03
2023-01-28T08:35:17.965Z,96778.41
2023-01-28T08:37:45.853Z,96785.22
2023-01-28T08:40:18.049Z,96785.97
2023-01-28T08:42:48.714Z,96786.00
2023-01-28T08:45:19.183Z,96785.34
2023-01-28T08:47:50.867Z,96789.47
2023-01-28T08:50:19.236Z,96792.09
2023-01-28T08:52:49.154Z,96797.22
2023-01-28T08:55:20.153Z,96792.16
2023-01-28T08:57:50.234Z,96794.59
2023-01-28T09:00:18.947Z,96797.00
2023-01-28T09:02:46.941Z,96794.56
2023-01-28T09:05:15.167Z,96792.97
2023-01-28T09:07:43.148Z,96793.53
2023-01-28T09:10:17.319Z,96794.34
2023-01-28T09:12:46.750Z,96801.19
2023-01-28T09:15:16.235Z,96791.72
2023-01-28T09:17:44.172Z,96805.47
2023-01-28T09:20:16.208Z,96803.00
2023-01-28T09:22:44.355Z,96806.22
2023-01-28T09:25:12.222Z,96807.22
2023-01-28T09:27:40.118Z,96810.06
2023-01-28T09:30:11.434Z,96811.63
2023-01-28T09:32:39.350Z,96812.53
2023-01-28T09:35:07.844Z,96807.25
2023-01-28T09:37:35.851Z,96818.03
2023-01-28T09:40:04.041Z,96816.34
2023-01-28T09:42:41.028Z,96821.19
2023-01-28T09:45:16.178Z,96821.31
2023-01-28T09:47:45.773Z,96824.22
2023-01-28T09:50:17.935Z,96816.66
2023-01-28T09:52:53.956Z,96821.03
2023-01-28T09:55:26.603Z,96819.34
2023-01-28T09:57:55.539Z,96811.59
2023-01-28T10:00:32.443Z,96816.47
2023-01-28T10:03:40.321Z,96818.38
2023-01-28T10:06:16.866Z,96822.66
2023-01-28T10:09:01.017Z,96823.94
2023-01-28T10:11:39.662Z,96816.66
2023-01-28T10:14:11.839Z,96814.88
2023-01-28T10:16:43.389Z,96812.91
2023-01-28T10:19:25.729Z,96815.38
2023-01-28T10:21:56.607Z,96811.25
2023-01-28T10:24:31.208Z,96808.09
2023-01-28T10:26:59.169Z,96806.47
2023-01-28T10:29:28.748Z,96799.72
2023-01-28T10:32:02.824Z,96805.59
2023-01-28T10:34:30.739Z,96808.94
2023-01-28T10:36:59.204Z,96809.97
2023-01-28T10:39:29.295Z,96806.31
2023-01-28T10:41:59.355Z,96807.22
2023-01-28T10:44:36.329Z,96807.13
2023-01-28T10:47:11.140Z,96810.41
2023-01-28T10:49:45.404Z,96806.06
2023-01-28T10:52:15.911Z,96810.28
2023-01-28T10:54:43.888Z,96801.72
2023-01-28T10:57:14.171Z,96805.25
2023-01-28T10:59:42.907Z,96808.34
2023-01-28T11:02:32.491Z,96806.81
2023-01-28T11:05:07.808Z,96796.78
2023-01-28T11:07:35.766Z,96798.22
2023-01-28T11:10:03.660Z,96794.56
2023-01-28T11:12:32.133Z,96796.72
2023-01-28T11:15:01.603Z,96795.66
2023-01-28T11:17:32.638Z,96801.72
2023-01-28T11:20:02.475Z,96790.75
2023-01-28T11:22:41.367Z,96798.06
2023-01-28T11:25:17.644Z,96795.94
2023-01-28T11:27:51.357Z,96796.47
2023-01-28T11:30:23.642Z,96793.94
2023-01-28T11:33:01.580Z,96801.63
2023-01-28T11:35:31.312Z,96797.44
2023-01-28T11:37:59.687Z,96796.03
2023-01-28T11:40:28.514Z,96797.44
2023-01-28T11:42:58.370Z,96795.19
2023-01-28T11:45:35.457Z,96798.41
2023-01-28T11:48:32.573Z,96793.56
2023-01-28T11:51:05.715Z,96794.19
2023-01-28T11:53:56.524Z,96792.53
2023-01-28T11:56:44.994Z,96789.56
2023-01-28T11:59:59.764Z,96797.53
2023-01-28T12:02:46.349Z,96799.31
2023-01-28T12:05:28.219Z,96800.00
2023-01-28T12:08:03.870Z,96795.56
2023-01-28T12:10:40.812Z,96791.72
2023-01-28T12:13:29.677Z,96791.88
2023-01-28T12:16:09.194Z,96796.47
2023-01-28T12:18:56.751Z,96799.75
2023-01-28T12:21:36.122Z,96792.41
2023-01-28T12:24:15.904Z,96787.75
2023-01-28T12:26:49.281Z,96790.50
2023-01-28T12:29:24.695Z,96794.28
2023-01-28T12:32:02.167Z,96788.66
2023-01-28T12:35:08.617Z,96787.91
2023-01-28T12:37:49.846Z,96789.25
2023-01-28T12:40:33.677Z,96795.34
2023-01-28T12:43:06.683Z,96791.94
2023-01-28T12:45:40.757Z,96796.31
2023-01-28T12:48:15.893Z,96790.78
2023-01-28T12:50:47.879Z,96789.72
2023-01-28T12:53:25.030Z,96797.44
2023-01-28T12:56:00.886Z,96794.41
2023-01-28T12:58:40.136Z,96793.25
2023-01-28T13:01:10.666Z,96799.78
2023-01-28T13:03:41.950Z,96798.97
2023-01-28T13:06:13.843Z,96800.66
2023-01-28T13:08:43.115Z,96804.28
2023-01-28T13:11:13.862Z,96802.13
2023-01-28T13:13:43.383Z,96796.22
2023-01-28T13:16:12.709Z,96803.56
2023-01-28T13:18:50.416Z,96800.16
2023-01-28T13:21:34.619Z,96805.03
2023-01-28T13:24:22.661Z,96805.78
2023-01-28T13:26:55.031Z,96819.41
2023-01-28T13:29:34.634Z,96812.78
2023-01-28T13:32:04.044Z,96811.09
2023-01-28T13:34:35.640Z,96817.97
2023-01-28T13:37:06.587Z,96819.13
2023-01-28T13:39:39.061Z,96822.56
2023-01-28T13:42:21.854Z,96823.22
2023-01-28T13:44:50.274Z,96829.13
2023-01-28T13:47:24.726Z,96827.44
2023-01-28T13:49:57.277Z,96827.03
2023-01-28T13:52:29.361Z,96830.59
2023-01-28T13:55:04.788Z,96831.53
2023-01-28T13:58:17.471Z,96827.31
2023-01-28T14:01:12.930Z,96827.50
2023-01-28T14:04:33.999Z,96826.63
2023-01-28T14:07:36.291Z,96834.06
2023-01-28T14:10:23.421Z,96829.97
2023-01-28T14:13:03.426Z,96834.19
2023-01-28T14:15:45.867Z,96839.28
2023-01-28T14:18:20.077Z,96840.09
2023-01-28T14:20:48.053Z,96839.22
2023-01-28T14:23:18.070Z,96844.78
2023-01-28T14:26:03.022Z,96843.97
2023-01-28T14:28:42.254Z,96845.03
2023-01-28T14:31:16.132Z,96849.16
2023-01-28T14:33:44.909Z,96852.31
2023-01-28T14:36:13.046Z,96852.84
2023-01-28T14:38:42.799Z,96859.84
2023-01-28T14:41:22.459Z,96856.69
2023-01-28T14:43:50.697Z,96858.22
2023-01-28T14:46:32.655Z,96859.50
2023-01-28T14:49:25.819Z,96866.13
2023-01-28T14:52:19.882Z,96863.19
2023-01-28T14:54:58.316Z,96864.88
2023-01-28T14:57:46.041Z,96872.59
2023-01-28T15:00:22.874Z,96871.72
2023-01-28T15:02:50.905Z,96875.84
2023-01-28T15:05:23.504Z,96875.03
2023-01-28T15:07:51.573Z,96879.19
2023-01-28T15:10:24.251Z,96883.22
2023-01-28T15:12:55.745Z,96883.28
2023-01-28T15:15:29.416Z,96881.47
2023-01-28T15:18:01.290Z,96889.88
2023-01-28T15:20:29.202Z,96892.66
2023-01-28T15:22:59.252Z,96895.88
2023-01-28T15:25:29.807Z,96892.44
2023-01-28T15:28:01.417Z,96893.94
2023-01-28T15:30:31.097Z,96896.47
2023-01-28T15:33:05.130Z,96902.09
2023-01-28T15:35:33.667Z,96895.56
2023-01-28T15:38:01.604Z,96898.28
2023-01-28T15:40:32.915Z,96908.31
2023-01-28T15:43:02.218Z,96910.13
2023-01-28T15:45:30.717Z,96909.78
2023-01-28T15:48:05.467Z,96912.06
2023-01-28T15:50:33.407Z,96911.91
2023-01-28T15:53:04.192Z,96918.34
2023-01-28T15:55:36.706Z,96908.94
2023-01-28T15:58:30.663Z,96920.84
2023-01-28T16:01:17.019Z,96921.81
2023-01-28T16:03:46.221Z,96922.56
2023-01-28T16:06:17.786Z,96927.69
2023-01-28T16:08:54.970Z,96932.84
2023-01-28T16:11:25.161Z,96940.28
2023-01-28T16:13:54.903Z,96929.97
2023-01-28T16:16:28.997Z,96932.44
2023-01-28T16:18:56.977Z,96942.63
2023-01-28T16:21:27.775Z,96953.47
2023-01-28T16:24:01.847Z,96958.69
2023-01-28T16:26:30.744Z,96953.75
2023-01-28T16:29:01.406Z,96954.59
2023-01-28T16:31:29.444Z,96962.81
2023-01-28T16:33:57.398Z,96956.78
2023-01-28T16:36:26.556Z,96966.16
2023-01-28T16:38:55.960Z,96961.84
2023-01-28T16:41:31.735Z,96971.88
2023-01-28T16:44:05.536Z,96971.34
2023-01-28T16:46:34.482Z,96976.56
2023-01-28T16:49:03.630Z,96972.34
2023-01-28T16:51:32.012Z,96974.00
2023-01-28T16:54:02.282Z,96980.50
2023-01-28T16:56:46.805Z,96979.00
2023-01-28T16:59:17.433Z,96983.94
2023-01-28T17:01:47.813Z,96990.56
2023-01-28T17:04:15.956Z,96982.31
2023-01-28T17:06:45.258Z,96992.44
2023-01-28T17:09:13.987Z,96992.38
2023-01-28T17:11:42.217Z,97001.75
2023-01-28T17:14:10.408Z,97002.47
2023-01-28T17:16:39.748Z,97006.72
2023-01-28T17:19:10.016Z,97009.31
2023-01-28T17:21:37.955Z,97006.03
2023-01-28T17:24:09.638Z,97015.13
2023-01-28T17:26:38.176Z,97016.03
2023-01-28T17:29:06.865Z,97012.81
2023-01-28T17:31:34.978Z,97014.59
2023-01-28T17:34:11.196Z,97013.75
2023-01-28T17:36:39.243Z,97022.22
2023-01-28T17:39:07.499Z,97021.50
2023-01-28T17:41:35.436Z,97024.09
2023-01-28T17:44:07.762Z,97029.13
2023-01-28T17:46:35.722Z,97030.66
2023-01-28T17:49:05.010Z,97034.63
2023-01-28T17:51:34.482Z,97035.44
2023-01-28T17:54:04.722Z,97037.91
2023-01-28T17:56:32.931Z,97042.97
2023-01-28T17:59:05.964Z,97048.00
2023-01-28T18:01:34.761Z,97045.38
2023-01-28T18:04:04.608Z,97044.50
2023-01-28T18:06:33.071Z,97052.22
2023-01-28T18:09:01.265Z,97048.16
2023-01-28T18:11:34.023Z,97049.16
2023-01-28T18:14:01.940Z,97052.28
2023-01-28T18:16:29.828Z,97055.72
2023-01-28T18:18:58.917Z,97059.84
2023-01-28T18:21:51.337Z,97056.69
2023-01-28T18:24:20.663Z,97059.91
2023-01-28T18:26:48.778Z,97057.50
2023-01-28T18:29:20.458Z,97059.22
2023-01-28T18:31:48.776Z,97057.38
2023-01-28T18:34:17.095Z,97057.34
2023-01-28T18:36:46.392Z,97055.69
2023-01-28T18:39:15.944Z,97058.22
2023-01-28T18:41:43.937Z,97058.03
2023-01-28T18:44:16.466Z,97063.06
2023-01-28T18:46:44.356Z,97064.84
2023-01-28T18:49:12.241Z,97065.69
2023-01-28T18:51:43.111Z,97066.34
2023-01-28T18:54:14.840Z,97066.34
2023-01-28T18:56:45.545Z,97066.59
2023-01-28T18:59:17.196Z,97075.78
2023-01-28T19:01:49.261Z,97075.78
2023-01-28T19:04:18.803Z,97078.25
2023-01-28T19:06:49.048Z,97079.84
2023-01-28T19:09:19.817Z,97079.81
2023-01-28T19:11:48.413Z,97086.44
2023-01-28T19:14:17.000Z,97078.94
2023-01-28T19:16:45.516Z,97086.50
2023-01-28T19:19:13.642Z,97093.25
2023-01-28T19:21:42.674Z,97090.72
2023-01-28T19:24:14.049Z,97094.00
2023-01-28T19:26:47.012Z,97088.91
2023-01-28T19:29:16.353Z,97098.94
2023-01-28T19:31:50.779Z,97094.84
2023-01-28T19:34:18.716Z,97089.19
2023-01-28T19:36:46.800Z,97099.25
2023-01-28T19:39:15.177Z,97107.59
2023-01-28T19:41:44.717Z,97117.47
2023-01-28T19:44:12.721Z,97113.22
2023-01-28T19:46:43.292Z,97106.56
2023-01-28T19:49:12.673Z,97115.88
2023-01-28T19:51:45.292Z,97117.53
2023-01-28T19:54:13.396Z,97111.72
2023-01-28T19:56:43.665Z,97113.50
2023-01-28T19:59:15.023Z,97115.88
2023-01-28T20:01:46.221Z,97110.13
2023-01-28T20:04:14.140Z,97122.63
2023-01-28T20:06:42.049Z,97122.59
2023-01-28T20:09:15.748Z,97111.66
2023-01-28T20:11:46.071Z,97119.25
2023-01-28T20:14:16.214Z,97119.13
2023-01-28T20:16:44.127Z,97126.72
2023-01-28T20:19:15.293Z,97127.66
2023-01-28T20:21:43.357Z,97133.34
2023-01-28T20:24:13.076Z,97138.41
2023-01-28T20:26:42.704Z,97141.78
2023-01-28T20:29:14.474Z,97146.81
2023-01-28T20:31:44.078Z,97139.38
2023-01-28T20:34:15.899Z,97149.38
2023-01-28T20:36:43.906Z,97144.38
2023-01-28T20:39:11.865Z,97140.28
2023-01-28T20:41:39.776Z,97143.47
2023-01-28T20:44:07.669Z,97144.19
2023-01-28T20:46:36.630Z,97150.00
2023-01-28T20:49:06.706Z,97141.69
2023-01-28T20:51:36.562Z,97141.00
2023-01-28T20:54:04.598Z,97147.72
2023-01-28T20:56:32.858Z,97133.50
2023-01-28T20:59:02.336Z,97139.31
2023-01-28T21:01:33.632Z,97150.25
2023-01-28T21:04:01.798Z,97146.94
2023-01-28T21:06:31.181Z,97145.22
2023-01-28T21:08:59.500Z,97146.84
2023-01-28T21:11:30.083Z,97151.00
2023-01-28T21:13:58.197Z,97154.34
2023-01-28T21:16:26.509Z,97152.66
2023-01-28T21:18:55.887Z,97159.38
2023-01-28T21:21:26.067Z,97156.03
2023-01-28T21:23:57.788Z,97152.81
2023-01-28T21:26:25.909Z,97159.50
2023-01-28T21:28:55.112Z,97160.31
2023-01-28T21:31:25.260Z,97157.88
2023-01-28T21:33:54.933Z,97166.28
2023-01-28T21:36:23.392Z,97161.94
2023-01-28T21:38:52.744Z,97167.84
2023-01-28T21:41:23.900Z,97179.63
2023-01-28T21:43:56.102Z,97173.75
2023-01-28T21:46:25.356Z,97176.34
2023-01-28T21:48:55.899Z,97173.84
2023-01-28T21:51:48.678Z,97183.88
2023-01-28T21:54:18.134Z,97192.19
2023-01-28T21:56:48.854Z,97192.22
2023-01-28T21:59:28.726Z,97201.50
2023-01-28T22:01:58.285Z,97193.03
2023-01-28T22:04:26.749Z,97202.38
2023-01-28T22:06:58.085Z,97189.00
2023-01-28T22:09:28.114Z,97185.75
2023-01-28T22:11:59.494Z,97185.75
2023-01-28T22:14:29.337Z,97182.41
2023-01-28T22:16:57.546Z,97177.28
2023-01-28T22:19:25.493Z,97186.50
2023-01-28T22:21:54.644Z,97184.72
2023-01-28T22:24:24.438Z,97182.22
2023-01-28T22:26:53.574Z,97178.06
2023-01-28T22:29:24.152Z,97173.19
2023-01-28T22:31:53.169Z,97176.56
2023-01-28T22:34:21.923Z,97174.78
2023-01-28T22:36:51.161Z,97172.25
2023-01-28T22:39:19.637Z,97173.16
2023-01-28T22:41:48.062Z,97172.41
2023-01-28T22:44:16.309Z,97172.34
2023-01-28T22:46:45.633Z,97171.25
2023-01-28T22:49:17.475Z,97169.47
2023-01-28T22:51:45.401Z,97176.16
2023-01-28T22:54:14.907Z,97166.16
2023-01-28T22:56:43.186Z,97174.50
2023-01-28T22:59:12.048Z,97171.28
2023-01-28T23:01:40.075Z,97176.28
2023-01-28T23:04:12.923Z,97168.81
2023-01-28T23:06:43.511Z,97162.84
2023-01-28T23:09:11.500Z,97169.38
2023-01-28T23:11:39.418Z,97165.41
2023-01-28T23:14:27.306Z,97160.47
2023-01-28T23:17:12.607Z,97160.53
2023-01-28T23:20:01.741Z,97162.97
2023-01-28T23:22:49.351Z,97164.75
2023-01-28T23:25:17.545Z,97171.38
2023-01-28T23:27:45.696Z,97162.22
2023-01-28T23:30:14.725Z,97168.06
2023-01-28T23:32:47.301Z,97164.75
2023-01-28T23:35:22.233Z,97168.88
2023-01-28T23:37:50.143Z,97168.03
2023-01-28T23:40:18.733Z,97174.81
2023-01-28T23:42:49.327Z,97170.66
2023-01-28T23:45:17.485Z,97174.81
2023-01-28T23:47:47.420Z,97167.22
2023-01-28T23:50:17.800Z,97168.72
2023-01-28T23:52:47.647Z,97178.22
2023-01-28T23:55:18.222Z,97169.84
2023-01-28T23:57:46.107Z,97171.59
